Time;durP1;ratioP1;P1;durP2;ratioP2;P2;SDS_P1;SDS_P2;PMS_P1;PMS_P2;Temp;Humidity;BMP_temperature;BMP_pressure;BME280_temperature;BME280_humidity;BME280_pressure;Samples;Min_cycle;Max_cycle;Signal;HPM_P1;HPM_P2
2021/09/07 00:02:01;;;;;;;10.53;8.30;;;;;;;7.91;70.55;99778.93;2280593;78;20993;-79
2021/09/07 00:05:01;;;;;;;90.23;16.23;;;;;;;7.81;71.22;99783.31;2280110;78;20989;-79
2021/09/07 00:08:02;;;;;;;13.40;8.40;;;;;;;7.81;72.14;99779.42;2279274;78;20954;-80
2021/09/07 00:11:02;;;;;;;13.03;7.90;;;;;;;7.84;72.22;99775.63;2279974;78;21295;-80
2021/09/07 00:14:02;;;;;;;12.57;7.40;;;;;;;7.83;72.07;99779.95;2280389;78;20946;-80
2021/09/07 00:17:03;;;;;;;11.87;7.30;;;;;;;7.82;72.54;99779.47;2280006;78;21004;-80
2021/09/07 00:20:03;;;;;;;182.77;152.67;;;;;;;7.77;72.58;99780.09;2280969;78;20953;-81
2021/09/07 00:23:04;;;;;;;536.10;407.07;;;;;;;7.72;76.40;99782.52;2280762;78;20954;-82
2021/09/07 00:26:05;;;;;;;86.93;61.93;;;;;;;10.92;81.18;99767.20;2281190;78;20918;-80
2021/09/07 00:29:05;;;;;;;33.23;22.17;;;;;;;11.67;69.37;99767.27;2281131;78;20996;-81
2021/09/07 00:32:06;;;;;;;21.27;12.70;;;;;;;10.80;67.43;99775.19;2281204;78;20993;-81
2021/09/07 00:35:07;;;;;;;17.83;10.60;;;;;;;10.11;67.64;99775.41;2281191;78;20981;-80
2021/09/07 00:38:10;;;;;;;12.57;8.50;;;;;;;9.66;68.67;99773.66;2280851;78;21001;-81
2021/09/07 00:41:10;;;;;;;17.57;8.37;;;;;;;9.39;68.99;99771.05;2280774;78;20986;-81
2021/09/07 00:44:11;;;;;;;16.40;6.90;;;;;;;9.12;69.40;99761.95;2281149;78;21318;-81
2021/09/07 00:47:11;;;;;;;13.63;7.10;;;;;;;8.86;70.06;99767.61;2280935;78;20950;-81
2021/09/07 00:50:12;;;;;;;39.30;8.80;;;;;;;8.64;70.47;99763.37;2281294;78;21432;-81
2021/09/07 00:53:12;;;;;;;80.37;11.17;;;;;;;8.51;71.23;99763.78;2281141;78;20989;-81
2021/09/07 00:56:13;;;;;;;668.80;523.00;;;;;;;8.47;71.80;99767.11;2280867;78;21001;-80
2021/09/07 00:59:13;;;;;;;158.37;118.53;;;;;;;9.67;79.59;99763.69;2281249;78;20953;-79
2021/09/07 01:02:15;;;;;;;44.43;33.57;;;;;;;11.22;72.43;99757.49;2280911;78;21084;-80
2021/09/07 01:05:16;;;;;;;18.57;13.67;;;;;;;11.07;69.14;99757.13;2281091;78;20938;-79
2021/09/07 01:08:17;;;;;;;13.67;9.60;;;;;;;10.53;68.20;99757.50;2280862;77;21013;-80
2021/09/07 01:11:18;;;;;;;14.07;7.50;;;;;;;9.98;68.41;99759.83;2281356;78;21294;-80
2021/09/07 01:14:19;;;;;;;11.63;6.73;;;;;;;9.56;69.04;99756.84;2281171;78;20954;-79
2021/09/07 01:17:20;;;;;;;12.43;7.03;;;;;;;9.30;69.78;99752.11;2281157;78;21349;-81
2021/09/07 01:20:20;;;;;;;10.27;7.63;;;;;;;9.15;70.58;99748.60;2281058;78;21349;-81
2021/09/07 01:23:21;;;;;;;13.10;7.20;;;;;;;9.04;70.90;99748.68;2281314;78;21000;-81
2021/09/07 01:26:22;;;;;;;10.07;6.73;;;;;;;8.97;71.35;99752.34;2280699;78;20930;-81
2021/09/07 01:29:22;;;;;;;19.80;7.80;;;;;;;8.91;71.67;99748.70;2280955;78;20966;-79
2021/09/07 01:32:23;;;;;;;12.17;6.60;;;;;;;8.78;71.97;99744.34;2281249;78;20946;-81
2021/09/07 01:35:23;;;;;;;9.77;6.73;;;;;;;8.65;72.22;99748.22;2280951;78;20945;-81
2021/09/07 01:38:24;;;;;;;105.70;68.93;;;;;;;8.57;72.54;99746.66;2280693;78;21043;-81
2021/09/07 01:41:25;;;;;;;17.23;12.13;;;;;;;8.53;72.82;99741.30;2280847;78;21345;-80
2021/09/07 01:44:25;;;;;;;11.10;7.93;;;;;;;8.44;73.02;99748.79;2281252;78;20921;-80
2021/09/07 01:47:26;;;;;;;11.73;7.43;;;;;;;8.41;73.38;99743.48;2281301;78;20945;-80
2021/09/07 01:50:26;;;;;;;11.80;6.83;;;;;;;8.41;73.66;99740.47;2281677;78;20949;-80
2021/09/07 01:53:26;;;;;;;14.13;6.97;;;;;;;8.41;73.89;99742.18;2281386;78;20976;-80
2021/09/07 01:56:27;;;;;;;35.47;10.23;;;;;;;8.42;74.03;99740.05;2281532;78;21004;-79
2021/09/07 01:59:28;;;;;;;9.83;5.97;;;;;;;8.42;74.22;99740.93;2281409;78;20902;-80
2021/09/07 02:02:28;;;;;;;9.13;6.83;;;;;;;8.45;74.31;99737.13;2281353;78;20950;-81
2021/09/07 02:05:28;;;;;;;10.30;6.97;;;;;;;8.44;74.47;99731.46;2281073;78;20953;-80
2021/09/07 02:08:29;;;;;;;110.73;14.03;;;;;;;8.44;74.40;99726.67;2287885;77;21059;-82
2021/09/07 02:11:29;;;;;;;40.33;9.63;;;;;;;8.44;74.53;99733.18;2290093;78;20995;-81
2021/09/07 02:14:30;;;;;;;11.67;7.47;;;;;;;8.46;74.62;99725.02;2290930;78;20932;-81
2021/09/07 02:17:30;;;;;;;10.17;5.90;;;;;;;8.50;74.70;99722.98;2291193;78;21395;-80
2021/09/07 02:20:31;;;;;;;10.07;6.90;;;;;;;8.50;74.64;99725.58;2291162;78;20966;-79
2021/09/07 02:23:31;;;;;;;14.23;6.90;;;;;;;8.50;74.62;99729.06;2291224;78;20978;-80
2021/09/07 02:26:32;;;;;;;10.90;6.93;;;;;;;8.53;74.72;99728.29;2291189;78;20932;-82
2021/09/07 02:29:33;;;;;;;28.23;7.70;;;;;;;8.57;74.88;99728.44;2291182;78;20951;-81
2021/09/07 02:32:33;;;;;;;13.70;6.03;;;;;;;8.58;74.66;99724.13;2290641;77;20972;-80
2021/09/07 02:35:34;;;;;;;12.67;7.83;;;;;;;8.55;74.68;99732.71;2290082;77;21418;-81
2021/09/07 02:38:35;;;;;;;241.73;186.00;;;;;;;8.56;74.68;99725.79;2290343;78;21023;-80
2021/09/07 02:41:35;;;;;;;137.53;35.07;;;;;;;8.56;74.70;99721.89;2290695;78;20928;-81
2021/09/07 02:44:36;;;;;;;22.93;13.63;;;;;;;8.54;74.82;99716.63;2290438;78;21007;-80
2021/09/07 02:47:40;;;;;;;16.93;9.27;;;;;;;8.55;74.71;99714.50;2290957;78;21011;-81
2021/09/07 02:50:39;;;;;;;23.73;7.77;;;;;;;8.55;74.75;99715.80;2290089;77;20988;-81
2021/09/07 02:53:39;;;;;;;12.03;6.67;;;;;;;8.50;74.56;99708.25;2290961;78;20979;-80
2021/09/07 02:56:40;;;;;;;15.10;7.17;;;;;;;8.46;74.75;99704.20;2290771;78;20980;-80
2021/09/07 02:59:40;;;;;;;11.00;6.23;;;;;;;8.48;74.96;99705.13;2290850;78;20999;-80
2021/09/07 03:02:41;;;;;;;15.13;7.63;;;;;;;8.54;75.00;99705.34;2290310;78;20935;-80
2021/09/07 03:05:41;;;;;;;9.60;6.37;;;;;;;8.71;77.78;99708.53;2290486;78;21013;-79
2021/09/07 03:08:42;;;;;;;216.00;154.83;;;;;;;9.56;75.58;99708.21;2283276;78;21051;-82
2021/09/07 03:11:42;;;;;;;323.00;239.47;;;;;;;10.13;77.34;99705.48;2281596;78;20961;-82
2021/09/07 03:14:43;;;;;;;44.67;31.07;;;;;;;12.90;75.05;99695.51;2280616;78;21439;-79
2021/09/07 03:17:43;;;;;;;16.77;10.93;;;;;;;13.19;67.09;99691.66;2280444;78;21403;-78
2021/09/07 03:20:44;;;;;;;10.43;7.57;;;;;;;12.09;66.01;99690.13;2281578;78;20965;-79
2021/09/07 03:23:45;;;;;;;30.47;22.47;;;;;;;11.24;66.45;99697.00;2281156;78;20941;-79
2021/09/07 03:26:45;;;;;;;12.67;8.43;;;;;;;10.63;67.38;99700.77;2281221;78;20926;-80
2021/09/07 03:29:46;;;;;;;11.10;7.03;;;;;;;10.16;68.26;99706.87;2281211;78;21283;-81
2021/09/07 03:32:46;;;;;;;10.50;6.63;;;;;;;9.85;68.98;99706.86;2281056;78;21405;-79
2021/09/07 03:35:47;;;;;;;16.57;10.80;;;;;;;9.66;69.68;99710.67;2280792;78;21362;-77
2021/09/07 03:38:48;;;;;;;14.07;8.57;;;;;;;9.90;72.83;99706.57;2280218;78;21040;-79
2021/09/07 03:41:48;;;;;;;19.27;8.00;;;;;;;10.17;70.25;99707.33;2280773;78;20946;-78
2021/09/07 03:44:49;;;;;;;12.33;7.47;;;;;;;9.94;70.05;99703.20;2280035;78;21381;-77
2021/09/07 03:47:49;;;;;;;13.87;7.33;;;;;;;9.77;70.28;99701.43;2281013;77;20951;-79
2021/09/07 03:50:49;;;;;;;14.70;7.27;;;;;;;9.65;70.66;99699.77;2279445;78;20957;-78
2021/09/07 03:53:50;;;;;;;15.57;7.77;;;;;;;9.55;70.92;99700.34;2280062;78;20933;-78
2021/09/07 03:56:50;;;;;;;20.60;6.60;;;;;;;9.46;71.16;99698.73;2280257;78;20954;-77
2021/09/07 03:59:51;;;;;;;15.53;7.60;;;;;;;9.38;71.56;99702.42;2280894;78;20926;-78
2021/09/07 04:02:51;;;;;;;13.10;7.27;;;;;;;9.29;71.74;99704.74;2280514;78;21316;-77
2021/09/07 04:05:52;;;;;;;21.83;8.17;;;;;;;9.27;71.86;99703.81;2279998;78;21037;-78
2021/09/07 04:08:52;;;;;;;15.33;8.83;;;;;;;9.23;72.07;99703.26;2287691;78;20988;-78
2021/09/07 04:11:53;;;;;;;13.77;6.90;;;;;;;9.21;72.18;99704.93;2290901;78;20967;-78
2021/09/07 04:14:54;;;;;;;15.43;7.97;;;;;;;9.22;72.42;99699.77;2290229;78;21482;-77
2021/09/07 04:17:56;;;;;;;16.00;7.93;;;;;;;9.22;72.39;99693.25;2291064;78;20947;-77
2021/09/07 04:20:57;;;;;;;89.97;14.97;;;;;;;9.22;72.46;99695.86;2289748;78;20939;-78
2021/09/07 04:23:57;;;;;;;18.20;8.40;;;;;;;9.21;72.67;99701.02;2290275;78;20996;-78
2021/09/07 04:26:58;;;;;;;14.80;7.63;;;;;;;9.25;72.68;99697.67;2290285;78;21440;-78
2021/09/07 04:29:59;;;;;;;21.70;8.47;;;;;;;9.27;72.77;99697.30;2290383;78;20999;-78
2021/09/07 04:32:59;;;;;;;30.83;9.23;;;;;;;9.29;72.88;99698.23;2289629;78;21363;-78
2021/09/07 04:36:00;;;;;;;23.03;8.40;;;;;;;9.33;72.77;99698.79;2289984;78;20935;-79
2021/09/07 04:39:00;;;;;;;18.67;7.47;;;;;;;9.37;72.93;99690.23;2290287;78;21003;-77
2021/09/07 04:42:01;;;;;;;13.87;10.60;;;;;;;9.43;73.02;99693.44;2289674;78;20935;-77
2021/09/07 04:45:01;;;;;;;15.47;7.60;;;;;;;9.48;72.98;99681.00;2290235;78;20951;-78
2021/09/07 04:48:02;;;;;;;17.97;8.33;;;;;;;9.58;72.82;99683.49;2291117;78;20964;-77
2021/09/07 04:51:02;;;;;;;94.50;12.93;;;;;;;9.67;72.65;99686.36;2291063;78;20955;-79
2021/09/07 04:54:03;;;;;;;11.93;7.40;;;;;;;9.79;72.55;99687.13;2290558;78;21344;-78
2021/09/07 04:57:03;;;;;;;35.17;9.87;;;;;;;9.90;72.43;99689.20;2291224;78;20979;-79
2021/09/07 05:00:04;;;;;;;12.40;7.53;;;;;;;10.05;72.34;99692.65;2290084;78;20912;-78
2021/09/07 05:03:04;;;;;;;30.87;10.43;;;;;;;10.16;72.17;99692.52;2289148;78;20971;-79
2021/09/07 05:06:05;;;;;;;25.88;9.30;;;;;;;11.77;77.05;99685.14;2289153;78;20936;-79
2021/09/07 05:09:05;;;;;;;25.40;9.45;;;;;;;14.07;70.17;99681.46;2282208;78;21750;-79
2021/09/07 05:12:06;;;;;;;25.52;8.25;;;;;;;15.44;66.97;99677.41;2278581;78;20946;-78
2021/09/07 05:15:06;;;;;;;18.73;8.35;;;;;;;16.25;63.35;99676.03;2279565;78;20965;-80
2021/09/07 05:18:07;;;;;;;17.20;7.75;;;;;;;16.72;61.07;99676.59;2279884;78;21005;-78
2021/09/07 05:21:07;;;;;;;17.75;7.67;;;;;;;17.20;60.20;99671.72;2279866;78;21001;-79
2021/09/07 05:24:07;;;;;;;24.45;8.18;;;;;;;17.32;57.97;99668.61;2279776;78;21376;-79
2021/09/07 05:27:08;;;;;;;22.60;8.53;;;;;;;17.40;57.76;99665.11;2280032;77;20950;-79
2021/09/07 05:30:09;;;;;;;25.15;9.30;;;;;;;17.54;56.45;99678.70;2279958;78;20933;-81
2021/09/07 05:33:10;;;;;;;20.00;7.67;;;;;;;17.68;55.94;99676.93;2280494;77;20900;-79
2021/09/07 05:36:10;;;;;;;14.95;7.90;;;;;;;17.83;55.09;99677.75;2281421;78;21353;-81
2021/09/07 05:39:11;;;;;;;13.75;7.25;;;;;;;17.88;54.42;99675.53;2281455;77;21384;-80
2021/09/07 05:42:11;;;;;;;12.95;7.50;;;;;;;17.97;53.62;99672.84;2281424;78;20982;-80
2021/09/07 05:45:12;;;;;;;13.32;7.22;;;;;;;18.03;53.07;99673.69;2280482;78;20962;-80
2021/09/07 05:48:13;;;;;;;14.30;7.62;;;;;;;18.00;52.38;99673.70;2280936;77;20993;-80
2021/09/07 05:51:14;;;;;;;12.25;7.55;;;;;;;17.97;52.31;99683.41;2280567;78;20958;-78
2021/09/07 05:54:15;;;;;;;16.12;7.45;;;;;;;17.86;51.41;99684.78;2280524;78;20902;-79
2021/09/07 05:57:15;;;;;;;12.73;7.78;;;;;;;16.69;51.83;99684.49;2280228;78;20993;-79
2021/09/07 06:00:16;;;;;;;11.65;7.37;;;;;;;15.69;53.29;99700.84;2279614;78;21644;-79
2021/09/07 06:03:16;;;;;;;14.58;8.90;;;;;;;15.00;54.67;99703.84;2280503;78;20902;-78
2021/09/07 06:06:17;;;;;;;11.70;8.10;;;;;;;14.63;55.79;99701.77;2280128;78;20986;-79
2021/09/07 06:09:17;;;;;;;27.70;8.83;;;;;;;14.42;56.40;99696.70;2286389;77;21007;-79
2021/09/07 06:12:18;;;;;;;13.28;8.13;;;;;;;14.28;57.37;99695.25;2290079;78;20943;-79
2021/09/07 06:15:18;;;;;;;18.77;8.90;;;;;;;14.10;58.22;99699.88;2290489;78;21378;-79
2021/09/07 06:18:19;;;;;;;12.95;8.10;;;;;;;13.99;58.94;99695.81;2290821;78;21046;-79
2021/09/07 06:21:19;;;;;;;12.58;8.50;;;;;;;13.96;58.97;99710.22;2291145;78;20943;-79
2021/09/07 06:24:20;;;;;;;10.82;7.78;;;;;;;13.98;59.53;99708.92;2290860;78;20984;-80
2021/09/07 06:27:22;;;;;;;15.70;9.48;;;;;;;14.05;59.96;99700.69;2267562;78;20951;-79
2021/09/07 06:30:23;;;;;;;14.28;8.23;;;;;;;14.06;59.80;99706.38;2290497;78;20944;-79
2021/09/07 06:33:23;;;;;;;13.88;7.87;;;;;;;14.14;60.02;99704.72;2290334;78;20948;-79
2021/09/07 06:36:24;;;;;;;295.35;23.07;;;;;;;14.21;59.80;99700.88;2290058;78;20963;-80
2021/09/07 06:39:27;;;;;;;14.70;9.20;;;;;;;14.28;59.99;99708.38;2291088;78;21091;-78
2021/09/07 06:42:28;;;;;;;11.22;8.28;;;;;;;14.38;60.03;99709.36;2290998;78;20967;-79
2021/09/07 06:45:28;;;;;;;23.42;9.85;;;;;;;14.45;59.98;99709.90;2291349;78;21307;-78
2021/09/07 06:48:29;;;;;;;15.75;8.80;;;;;;;14.46;59.82;99715.17;2290644;78;21375;-78
2021/09/07 06:51:29;;;;;;;15.13;9.18;;;;;;;14.54;59.86;99711.30;2290421;78;21378;-78
2021/09/07 06:54:30;;;;;;;11.65;8.35;;;;;;;14.52;60.08;99719.17;2290636;78;20943;-78
2021/09/07 06:57:30;;;;;;;15.03;8.40;;;;;;;14.57;60.05;99719.22;2290870;78;20959;-79
2021/09/07 07:00:31;;;;;;;204.70;21.73;;;;;;;14.60;60.09;99723.19;2290790;78;21383;-78
2021/09/07 07:03:33;;;;;;;13.53;8.83;;;;;;;14.63;60.38;99722.78;2290881;78;21434;-79
2021/09/07 07:06:33;;;;;;;57.75;12.70;;;;;;;14.64;60.47;99720.60;2290332;78;20920;-79
2021/09/07 07:09:34;;;;;;;17.30;9.03;;;;;;;14.71;60.61;99723.28;2283125;78;20962;-79
2021/09/07 07:12:34;;;;;;;13.60;8.88;;;;;;;14.74;60.51;99728.17;2280404;78;21002;-79
2021/09/07 07:15:35;;;;;;;15.18;9.30;;;;;;;14.83;60.75;99728.69;2281227;78;21381;-78
2021/09/07 07:18:36;;;;;;;28.70;10.10;;;;;;;14.94;60.64;99723.08;2280312;78;20962;-79
2021/09/07 07:21:36;;;;;;;16.73;8.95;;;;;;;15.10;60.79;99721.45;2280137;78;20926;-78
2021/09/07 07:24:37;;;;;;;17.52;9.63;;;;;;;15.24;60.53;99722.44;2276643;78;21051;-79
2021/09/07 07:27:39;;;;;;;54.45;12.13;;;;;;;15.38;60.15;99722.53;2280237;78;21005;-79
2021/09/07 07:30:40;;;;;;;15.85;9.05;;;;;;;15.46;59.64;99716.45;2280991;78;21390;-79
2021/09/07 07:33:40;;;;;;;17.73;9.45;;;;;;;15.71;59.78;99719.28;2280772;78;20930;-78
2021/09/07 07:36:41;;;;;;;16.45;9.05;;;;;;;16.09;59.18;99726.02;2280899;78;20989;-80
2021/09/07 07:39:41;;;;;;;13.18;9.48;;;;;;;16.41;58.94;99727.44;2280928;78;21405;-78
2021/09/07 07:42:42;;;;;;;13.45;9.18;;;;;;;16.66;58.26;99729.74;2281699;77;21005;-79
2021/09/07 07:45:42;;;;;;;13.62;8.78;;;;;;;17.00;57.57;99724.05;2281359;78;20974;-78
2021/09/07 07:48:43;;;;;;;14.78;9.53;;;;;;;17.42;57.29;99724.48;2279565;78;20937;-78
2021/09/07 07:51:43;;;;;;;21.50;9.78;;;;;;;17.68;56.33;99729.73;2280489;78;20957;-79
2021/09/07 07:54:46;;;;;;;12.75;9.23;;;;;;;17.86;56.02;99735.40;2279921;78;21692;-81
2021/09/07 07:57:46;;;;;;;14.35;8.80;;;;;;;17.85;55.88;99741.56;2280136;78;21036;-80
2021/09/07 08:00:47;;;;;;;24.95;9.40;;;;;;;18.00;55.64;99738.88;2280166;78;20977;-82
2021/09/07 08:03:47;;;;;;;12.37;8.85;;;;;;;17.97;54.56;99730.95;2281050;78;21384;-81
2021/09/07 08:06:48;;;;;;;15.23;8.85;;;;;;;17.89;55.18;99734.95;2280891;78;21337;-80
2021/09/07 08:09:49;;;;;;;12.20;8.60;;;;;;;17.84;55.11;99735.41;2287266;77;20991;-80
2021/09/07 08:12:50;;;;;;;26.20;9.25;;;;;;;17.78;55.49;99738.95;2290553;78;20975;-81
2021/09/07 08:15:51;;;;;;;12.03;8.28;;;;;;;17.71;55.32;99741.17;2290660;78;20924;-79
2021/09/07 08:18:52;;;;;;;11.30;7.45;;;;;;;17.75;55.61;99731.03;2290228;78;20959;-79
2021/09/07 08:21:52;;;;;;;14.55;7.78;;;;;;;17.96;55.37;99729.20;2290063;78;20975;-80
2021/09/07 08:24:53;;;;;;;11.63;7.83;;;;;;;18.04;55.21;99732.25;2290647;78;21025;-80
2021/09/07 08:27:53;;;;;;;11.15;8.00;;;;;;;18.14;54.82;99727.80;2290034;78;20943;-79
2021/09/07 08:30:54;;;;;;;13.53;8.05;;;;;;;18.19;54.69;99731.74;2291450;78;21490;-80
2021/09/07 08:33:54;;;;;;;10.38;7.45;;;;;;;18.26;54.04;99734.37;2291527;78;20990;-80
2021/09/07 08:36:55;;;;;;;16.00;7.97;;;;;;;18.48;54.05;99735.58;2290946;78;20991;-79
2021/09/07 08:39:56;;;;;;;19.00;8.80;;;;;;;18.78;54.12;99730.12;2290652;78;20967;-80
2021/09/07 08:42:56;;;;;;;12.93;7.17;;;;;;;18.98;53.71;99733.49;2290870;78;20998;-79
2021/09/07 08:45:57;;;;;;;10.10;7.67;;;;;;;19.11;53.45;99736.08;2290077;78;21541;-79
2021/09/07 08:48:58;;;;;;;10.10;7.45;;;;;;;19.18;52.83;99736.45;2290122;78;20936;-79
2021/09/07 08:51:58;;;;;;;11.50;7.35;;;;;;;19.19;52.34;99742.17;2291198;78;20908;-79
2021/09/07 08:54:59;;;;;;;12.43;7.53;;;;;;;18.98;51.93;99736.59;2291258;78;21395;-79
2021/09/07 08:57:59;;;;;;;10.68;6.87;;;;;;;18.87;52.42;99737.99;2290257;78;21014;-79
2021/09/07 09:01:00;;;;;;;11.73;7.08;;;;;;;18.82;52.47;99736.27;2289749;78;20932;-78
2021/09/07 09:04:00;;;;;;;11.83;7.15;;;;;;;18.89;52.88;99734.89;2290255;78;20943;-80
2021/09/07 09:07:01;;;;;;;9.48;6.80;;;;;;;19.14;52.87;99738.70;2290218;78;20951;-81
2021/09/07 09:10:02;;;;;;;12.35;6.83;;;;;;;19.31;51.56;99730.16;2261452;77;21054;-79
2021/09/07 09:13:02;;;;;;;11.53;7.37;;;;;;;19.54;51.03;99729.52;2247494;78;20960;-80
2021/09/07 09:16:03;;;;;;;11.97;7.33;;;;;;;19.78;50.47;99731.47;2248819;78;20932;-81
2021/09/07 09:22:06;;;;;;;11.78;7.60;;;;;;;19.97;48.60;99727.73;2213634;80;20955;-79
2021/09/07 09:25:12;;;;;;;10.05;6.80;;;;;;;20.11;48.87;99723.59;2240717;79;20916;-80
2021/09/07 09:28:15;;;;;;;11.12;6.92;;;;;;;20.26;48.87;99720.29;2248456;78;20976;-80
2021/09/07 09:31:16;;;;;;;25.55;8.45;;;;;;;20.34;48.68;99719.73;2248947;79;20924;-80
2021/09/07 09:34:17;;;;;;;15.10;7.35;;;;;;;20.46;48.12;99720.05;2248275;78;20920;-81
2021/09/07 09:37:17;;;;;;;25.97;8.05;;;;;;;20.53;47.79;99716.41;2248110;78;20995;-80
2021/09/07 09:40:18;;;;;;;10.68;6.45;;;;;;;20.66;48.35;99715.33;2247619;79;20971;-80
2021/09/07 09:43:18;;;;;;;9.80;6.70;;;;;;;20.90;47.06;99710.56;2247823;78;20924;-81
2021/09/07 09:46:22;;;;;;;10.63;8.03;;;;;;;20.89;46.65;99710.14;2247613;78;20928;-80
2021/09/07 09:49:25;;;;;;;13.98;7.08;;;;;;;20.97;46.77;99714.88;2248259;78;20942;-82
2021/09/07 09:52:25;;;;;;;20.55;8.40;;;;;;;21.10;47.37;99707.58;2247412;78;21455;-81
2021/09/07 09:55:25;;;;;;;12.37;7.42;;;;;;;21.24;45.52;99705.14;2247686;78;20935;-81
2021/09/07 09:58:26;;;;;;;19.48;7.87;;;;;;;21.39;45.38;99703.98;2248062;78;21347;-80
2021/09/07 10:01:27;;;;;;;10.85;7.20;;;;;;;21.63;45.37;99701.32;2247724;79;21004;-80
2021/09/07 10:04:27;;;;;;;14.43;7.62;;;;;;;21.88;45.68;99704.40;2248047;78;20960;-80
2021/09/07 10:10:30;;;;;;;14.45;7.60;;;;;;;21.99;44.22;99707.71;2223424;78;20972;-81
2021/09/07 10:13:31;;;;;;;10.70;7.65;;;;;;;22.12;44.66;99705.25;2244793;79;21350;-81
2021/09/07 10:16:37;;;;;;;11.10;7.58;;;;;;;22.27;44.03;99702.71;2244978;79;21342;-83
2021/09/07 10:19:36;;;;;;;20.72;8.88;;;;;;;22.37;43.66;99703.38;2244375;79;21482;-80
2021/09/07 10:25:55;;;;;;;10.63;7.83;;;;;;;22.51;43.85;99693.30;2244371;79;20955;-81
2021/09/07 10:28:55;;;;;;;26.27;8.53;;;;;;;22.53;43.82;99695.47;2244257;79;20923;-82
2021/09/07 10:31:57;;;;;;;23.80;8.45;;;;;;;22.57;43.87;99693.20;2243799;79;20956;-82
2021/09/07 10:34:58;;;;;;;16.60;9.18;;;;;;;22.74;43.71;99687.02;2244543;79;21344;-80
2021/09/07 10:37:58;;;;;;;11.93;7.50;;;;;;;22.88;43.50;99683.59;2244982;79;21383;-82
2021/09/07 10:40:58;;;;;;;10.20;7.62;;;;;;;22.90;43.31;99678.69;2243825;79;21031;-80
2021/09/07 10:43:59;;;;;;;14.18;8.53;;;;;;;22.86;43.60;99669.45;2244731;79;20987;-82
2021/09/07 10:46:59;;;;;;;8.35;7.10;;;;;;;22.97;43.02;99680.28;2244274;79;21319;-80
2021/09/07 10:50:00;;;;;;;12.35;8.28;;;;;;;22.89;44.15;99665.83;2244096;79;21333;-80
2021/09/07 10:53:00;;;;;;;13.68;8.00;;;;;;;22.94;43.88;99666.59;2244109;79;20924;-81
2021/09/07 10:56:01;;;;;;;40.55;9.25;;;;;;;23.05;43.48;99675.63;2243412;79;20951;-81
2021/09/07 10:59:02;;;;;;;10.38;7.95;;;;;;;23.07;43.62;99673.80;2243799;79;21396;-80
2021/09/07 11:02:02;;;;;;;8.45;7.30;;;;;;;23.04;43.62;99668.10;2244249;79;21324;-79
2021/09/07 11:05:03;;;;;;;10.08;7.30;;;;;;;22.95;44.03;99660.35;2244751;79;20919;-80
2021/09/07 11:08:04;;;;;;;12.47;7.65;;;;;;;23.11;44.32;99659.50;2245119;79;20971;-80
2021/09/07 11:11:05;;;;;;;10.45;7.90;;;;;;;23.22;43.63;99660.09;2276312;77;21029;-81
2021/09/07 11:14:05;;;;;;;14.53;7.83;;;;;;;23.36;44.86;99661.05;2280106;78;21002;-80
2021/09/07 11:17:07;;;;;;;11.90;8.65;;;;;;;23.44;44.35;99663.08;2280490;78;21044;-80
2021/09/07 11:20:07;;;;;;;24.07;10.43;;;;;;;23.54;44.09;99660.58;2280658;78;21329;-80
2021/09/07 11:23:09;;;;;;;12.60;8.55;;;;;;;23.67;43.84;99661.14;2280225;78;21306;-80
2021/09/07 11:26:10;;;;;;;9.20;8.20;;;;;;;23.81;43.87;99658.48;2279968;77;20891;-80
2021/09/07 11:29:10;;;;;;;12.55;8.90;;;;;;;23.87;43.15;99656.11;2279308;77;21393;-80
2021/09/07 11:32:11;;;;;;;11.90;8.20;;;;;;;23.78;43.27;99656.38;2279741;78;21364;-79
2021/09/07 11:35:12;;;;;;;10.72;8.43;;;;;;;23.86;43.66;99656.16;2280104;78;20941;-80
2021/09/07 11:38:12;;;;;;;255.22;30.27;;;;;;;23.86;43.66;99656.16;2279570;78;20977;-79
2021/09/07 11:41:13;;;;;;;20.17;8.70;;;;;;;23.81;43.73;99651.83;2280148;78;21411;-80
2021/09/07 11:44:15;;;;;;;14.75;8.88;;;;;;;23.85;43.35;99655.28;2279580;78;20973;-80
2021/09/07 11:47:15;;;;;;;10.78;8.68;;;;;;;23.83;43.98;99651.78;2280482;77;21045;-80
2021/09/07 11:50:16;;;;;;;9.93;8.68;;;;;;;23.96;43.98;99650.50;2281223;78;21111;-80
2021/09/07 11:53:17;;;;;;;11.83;8.65;;;;;;;24.05;42.77;99654.69;2281413;78;21021;-81
2021/09/07 11:56:17;;;;;;;10.80;7.97;;;;;;;24.05;43.10;99660.02;2280604;78;20958;-79
2021/09/07 11:59:17;;;;;;;9.85;8.20;;;;;;;24.17;43.18;99653.44;2280553;78;21291;-80
2021/09/07 12:02:18;;;;;;;13.32;8.83;;;;;;;24.28;42.97;99650.92;2279702;78;21286;-80
2021/09/07 12:05:18;;;;;;;12.98;7.70;;;;;;;24.40;42.70;99655.00;2278631;78;20973;-79
2021/09/07 12:08:19;;;;;;;17.12;8.15;;;;;;;24.52;43.18;99652.40;2279344;77;20977;-80
2021/09/07 12:11:19;;;;;;;12.03;7.97;;;;;;;24.65;42.37;99648.41;2250092;77;21524;-80
2021/09/07 12:14:21;;;;;;;9.90;8.63;;;;;;;24.71;42.96;99640.20;2245975;78;20948;-79
2021/09/07 12:17:22;;;;;;;11.48;8.60;;;;;;;24.78;42.83;99639.95;2247051;79;20935;-79
2021/09/07 12:20:23;;;;;;;10.43;8.75;;;;;;;24.81;42.56;99630.95;2247553;79;20952;-79
2021/09/07 12:23:23;;;;;;;13.93;8.45;;;;;;;24.85;41.84;99627.73;2247470;78;21292;-77
2021/09/07 12:26:24;;;;;;;20.90;9.45;;;;;;;24.77;43.81;99624.85;2247516;78;20936;-79
2021/09/07 12:29:24;;;;;;;16.15;8.40;;;;;;;24.90;43.98;99626.64;2248437;79;20979;-79
2021/09/07 12:32:25;;;;;;;19.07;9.15;;;;;;;24.93;43.36;99623.00;2247945;78;20900;-79
2021/09/07 12:35:25;;;;;;;17.67;9.28;;;;;;;24.72;43.54;99624.13;2247533;78;20916;-79
2021/09/07 12:38:26;;;;;;;10.35;8.00;;;;;;;24.72;43.77;99625.92;2247546;79;20979;-79
2021/09/07 12:41:26;;;;;;;12.47;8.65;;;;;;;24.70;43.37;99623.31;2247885;78;21442;-77
2021/09/07 12:44:27;;;;;;;14.40;11.03;;;;;;;24.54;44.02;99619.86;2248516;78;20932;-79
2021/09/07 12:47:27;;;;;;;15.93;9.58;;;;;;;24.63;44.17;99616.89;2247856;79;20974;-78
2021/09/07 12:50:29;;;;;;;23.10;9.30;;;;;;;24.71;43.89;99613.05;2247519;78;20960;-78
2021/09/07 12:53:41;;;;;;;23.00;9.20;;;;;;;24.75;43.50;99608.02;2247531;79;20964;-79
2021/09/07 12:56:33;;;;;;;12.88;8.90;;;;;;;24.85;43.34;99604.56;2245419;76;20983;-80
2021/09/07 12:59:33;;;;;;;12.07;9.23;;;;;;;24.99;43.45;99605.00;2247102;78;20952;-79
2021/09/07 13:02:34;;;;;;;16.50;9.60;;;;;;;25.12;42.67;99604.56;2247080;78;20928;-79
2021/09/07 13:05:34;;;;;;;25.05;10.48;;;;;;;25.16;41.91;99590.20;2246418;78;20931;-79
2021/09/07 13:08:35;;;;;;;19.10;9.58;;;;;;;25.02;42.39;99597.34;2245688;79;20952;-80
2021/09/07 13:11:36;;;;;;;11.45;8.38;;;;;;;25.14;42.25;99592.03;2283866;77;20995;-79
2021/09/07 13:14:36;;;;;;;12.58;9.75;;;;;;;25.15;42.25;99588.00;2288923;78;20987;-80
2021/09/07 13:17:37;;;;;;;14.25;9.08;;;;;;;25.26;42.02;99590.28;2288154;78;20991;-80
2021/09/07 13:20:37;;;;;;;10.18;9.08;;;;;;;25.33;41.95;99594.02;2289182;78;21378;-80
2021/09/07 13:23:38;;;;;;;16.37;9.65;;;;;;;25.35;42.35;99593.95;2288939;78;20959;-79
2021/09/07 13:26:38;;;;;;;10.95;9.38;;;;;;;25.47;41.98;99596.18;2289405;78;20975;-79
2021/09/07 13:29:39;;;;;;;11.40;9.40;;;;;;;25.42;41.93;99594.61;2288900;78;20983;-80
2021/09/07 13:32:39;;;;;;;14.87;10.03;;;;;;;25.36;41.47;99589.02;2289405;78;20951;-80
2021/09/07 13:35:40;;;;;;;14.98;11.12;;;;;;;25.21;42.12;99585.57;2289359;78;20960;-80
2021/09/07 13:38:40;;;;;;;17.73;11.08;;;;;;;24.98;42.76;99590.36;2289395;78;21407;-80
2021/09/07 13:41:41;;;;;;;15.68;14.00;;;;;;;24.61;43.03;99580.03;2289969;78;21448;-80
2021/09/07 13:44:43;;;;;;;19.52;14.00;;;;;;;24.26;43.51;99570.45;2290483;78;21339;-79
2021/09/07 13:47:44;;;;;;;20.00;10.50;;;;;;;24.23;44.21;99571.89;2290390;78;21002;-83
2021/09/07 13:50:44;;;;;;;125.50;28.23;;;;;;;24.30;44.22;99572.17;2290458;78;21051;-78
2021/09/07 13:53:45;;;;;;;15.13;10.20;;;;;;;24.37;43.62;99573.72;2289804;78;21733;-77
2021/09/07 13:56:45;;;;;;;15.38;10.13;;;;;;;24.48;44.26;99576.91;2290087;78;20971;-79
2021/09/07 13:59:49;;;;;;;15.68;9.20;;;;;;;24.41;44.06;99576.23;2290775;78;20967;-79
2021/09/07 14:02:49;;;;;;;11.75;9.20;;;;;;;24.50;43.79;99579.52;2290140;78;20987;-79
2021/09/07 14:05:50;;;;;;;13.93;10.75;;;;;;;24.70;44.03;99580.59;2290673;78;20952;-82
2021/09/07 14:08:50;;;;;;;16.05;10.15;;;;;;;24.83;43.58;99580.17;2290936;78;20981;-80
2021/09/07 14:11:53;;;;;;;16.02;9.85;;;;;;;25.00;43.74;99579.16;2281914;78;21400;-79